Time;durP1;ratioP1;P1;durP2;ratioP2;P2;SDS_P1;SDS_P2;PMS_P1;PMS_P2;Temp;Humidity;BMP_temperature;BMP_pressure;BME280_temperature;BME280_humidity;BME280_pressure;Samples;Min_cycle;Max_cycle;Signal;HPM_P1;HPM_P2
2024/01/10 00:01:38;;;;;;;16.77;7.80;;;;;;;;;;5010383;28;20050;-69
2024/01/10 00:04:04;;;;;;;9.87;6.57;;;;;;;;;;5011657;28;20502;-69
2024/01/10 00:06:30;;;;;;;11.00;7.50;;;;;;;;;;5011578;28;20030;-69
2024/01/10 00:08:56;;;;;;;12.33;7.90;;;;;;;;;;5011682;28;20426;-70
2024/01/10 00:11:22;;;;;;;15.93;7.27;;;;;;;;;;5010453;28;20033;-70
2024/01/10 00:13:48;;;;;;;12.13;7.13;;;;;;;;;;5013577;28;20341;-70
2024/01/10 00:16:14;;;;;;;12.90;7.30;;;;;;;;;;5014955;28;20053;-69
2024/01/10 00:18:40;;;;;;;12.73;7.70;;;;;;;;;;5014812;28;20106;-69
2024/01/10 00:21:08;;;;;;;12.37;7.60;;;;;;;;;;5015081;28;20022;-70
2024/01/10 00:23:34;;;;;;;14.23;8.63;;;;;;;;;;5013639;28;20091;-70
2024/01/10 00:29:19;;;;;;;11.40;7.90;;;;;;;;;;5002374;28;20547;-70
2024/01/10 00:31:45;;;;;;;13.90;7.50;;;;;;;;;;5006030;28;20038;-70
2024/01/10 00:34:11;;;;;;;11.53;7.60;;;;;;;;;;5010286;28;20027;-69
2024/01/10 00:36:37;;;;;;;15.40;8.23;;;;;;;;;;5012830;28;20566;-70
2024/01/10 00:39:04;;;;;;;13.90;8.27;;;;;;;;;;5014441;28;20049;-70
2024/01/10 00:41:30;;;;;;;12.47;7.97;;;;;;;;;;5014208;28;20018;-70
2024/01/10 00:43:56;;;;;;;14.50;8.25;;;;;;;;;;5013088;28;20026;-69
2024/01/10 00:46:22;;;;;;;12.52;7.35;;;;;;;;;;5013918;28;20022;-70
2024/01/10 00:48:48;;;;;;;13.38;8.02;;;;;;;;;;5014253;28;20105;-70
2024/01/10 00:51:14;;;;;;;9.80;7.00;;;;;;;;;;5013527;28;20053;-70
2024/01/10 00:53:42;;;;;;;12.03;8.47;;;;;;;;;;5014181;28;20022;-70
2024/01/10 00:56:08;;;;;;;14.90;8.53;;;;;;;;;;5013973;28;20025;-70
2024/01/10 00:58:34;;;;;;;10.17;7.00;;;;;;;;;;5012244;28;20030;-70
2024/01/10 01:01:00;;;;;;;14.00;8.10;;;;;;;;;;5013965;28;20037;-70
2024/01/10 01:03:26;;;;;;;12.63;7.43;;;;;;;;;;5013747;28;20480;-70
2024/01/10 01:05:52;;;;;;;15.10;7.33;;;;;;;;;;5013948;28;20029;-70
2024/01/10 01:08:18;;;;;;;12.17;7.33;;;;;;;;;;5012654;28;20373;-70
2024/01/10 01:10:44;;;;;;;13.57;8.03;;;;;;;;;;5013754;28;20044;-70
2024/01/10 01:13:10;;;;;;;16.77;7.70;;;;;;;;;;5012436;28;20030;-70
2024/01/10 01:15:36;;;;;;;12.83;7.53;;;;;;;;;;5014180;28;20108;-70
2024/01/10 01:18:02;;;;;;;11.43;6.87;;;;;;;;;;5012252;28;20033;-70
2024/01/10 01:20:28;;;;;;;8.50;6.70;;;;;;;;;;5013985;28;20034;-70
2024/01/10 01:22:54;;;;;;;13.90;7.00;;;;;;;;;;5012881;28;20057;-70
2024/01/10 01:25:20;;;;;;;10.30;7.30;;;;;;;;;;5013194;28;20048;-70
2024/01/10 01:27:46;;;;;;;12.63;7.47;;;;;;;;;;5013414;28;20026;-70
2024/01/10 01:30:12;;;;;;;9.53;7.20;;;;;;;;;;5012424;28;20050;-69
2024/01/10 01:32:38;;;;;;;10.33;6.97;;;;;;;;;;5012351;28;20404;-70
2024/01/10 01:35:05;;;;;;;12.13;7.23;;;;;;;;;;5009127;28;20026;-69
2024/01/10 01:40:34;;;;;;;12.13;8.33;;;;;;;;;;5008323;28;20084;-69
2024/01/10 01:43:00;;;;;;;12.63;7.17;;;;;;;;;;5012167;28;20026;-70
2024/01/10 01:45:26;;;;;;;13.33;7.83;;;;;;;;;;5013274;28;20014;-70
2024/01/10 01:47:52;;;;;;;10.37;7.80;;;;;;;;;;5001011;28;20479;-70
2024/01/10 01:50:19;;;;;;;14.30;8.67;;;;;;;;;;5013096;28;20076;-69
2024/01/10 01:52:45;;;;;;;11.30;8.20;;;;;;;;;;5013189;28;20026;-70
2024/01/10 01:55:11;;;;;;;9.77;7.80;;;;;;;;;;5013402;28;20069;-70
2024/01/10 01:57:38;;;;;;;10.47;7.20;;;;;;;;;;5012909;28;20018;-69
2024/01/10 02:00:04;;;;;;;10.80;7.33;;;;;;;;;;5012890;28;20034;-69
2024/01/10 02:02:31;;;;;;;10.90;7.03;;;;;;;;;;5011792;28;20505;-69
2024/01/10 02:04:58;;;;;;;10.90;6.90;;;;;;;;;;5012756;28;20034;-69
2024/01/10 02:07:24;;;;;;;11.43;7.37;;;;;;;;;;5013001;28;20141;-69
2024/01/10 02:09:50;;;;;;;10.33;6.87;;;;;;;;;;5012769;28;20427;-70
2024/01/10 02:12:16;;;;;;;11.60;6.90;;;;;;;;;;5012951;28;20026;-69
2024/01/10 02:14:42;;;;;;;13.00;7.53;;;;;;;;;;5012187;28;20337;-69
2024/01/10 02:17:08;;;;;;;9.67;7.03;;;;;;;;;;5011936;28;20399;-69
2024/01/10 02:19:34;;;;;;;13.60;7.53;;;;;;;;;;5011624;28;20038;-69
2024/01/10 02:22:02;;;;;;;10.00;6.87;;;;;;;;;;5011609;28;20030;-69
2024/01/10 02:24:28;;;;;;;10.67;7.73;;;;;;;;;;5011714;28;20026;-69
2024/01/10 02:26:54;;;;;;;11.57;7.67;;;;;;;;;;5011835;28;20065;-69
2024/01/10 02:29:20;;;;;;;11.17;8.70;;;;;;;;;;5010419;28;20435;-69
2024/01/10 02:31:46;;;;;;;12.20;7.63;;;;;;;;;;5011705;28;20037;-69
2024/01/10 02:34:12;;;;;;;11.73;7.27;;;;;;;;;;5011482;28;20018;-69
2024/01/10 02:42:45;;;;;;;11.27;7.53;;;;;;;;;;4999660;28;20130;-69
2024/01/10 02:45:11;;;;;;;9.23;6.63;;;;;;;;;;5010913;28;20026;-69
2024/01/10 02:47:37;;;;;;;12.40;8.43;;;;;;;;;;5010743;28;20403;-69
2024/01/10 02:50:04;;;;;;;13.03;6.63;;;;;;;;;;5012058;28;20061;-69
2024/01/10 02:52:30;;;;;;;8.43;6.00;;;;;;;;;;5012710;28;20069;-69
2024/01/10 02:54:56;;;;;;;10.33;7.03;;;;;;;;;;5012382;28;20022;-69
2024/01/10 02:57:22;;;;;;;10.33;6.43;;;;;;;;;;5011044;28;20060;-69
2024/01/10 02:59:48;;;;;;;10.67;6.77;;;;;;;;;;4991012;28;20058;-69
2024/01/10 03:02:14;;;;;;;11.80;6.17;;;;;;;;;;5008209;28;20038;-69
2024/01/10 03:04:41;;;;;;;8.77;6.27;;;;;;;;;;5011745;28;20036;-69
2024/01/10 03:07:07;;;;;;;9.93;6.57;;;;;;;;;;5012232;28;20103;-69
2024/01/10 03:09:33;;;;;;;13.40;6.97;;;;;;;;;;5011794;28;20038;-69
2024/01/10 03:11:59;;;;;;;8.73;6.50;;;;;;;;;;5012452;28;20454;-68
2024/01/10 03:14:25;;;;;;;9.37;6.50;;;;;;;;;;5012224;28;20037;-69
2024/01/10 03:16:51;;;;;;;10.80;6.30;;;;;;;;;;5011662;28;20034;-69
2024/01/10 03:19:17;;;;;;;13.70;7.77;;;;;;;;;;5012140;28;20071;-69
2024/01/10 03:21:43;;;;;;;7.87;5.90;;;;;;;;;;5009954;28;20049;-69
2024/01/10 03:24:09;;;;;;;8.27;5.47;;;;;;;;;;5008439;28;20025;-68
2024/01/10 03:26:35;;;;;;;10.23;5.80;;;;;;;;;;5010617;28;20088;-68
2024/01/10 03:29:01;;;;;;;8.80;6.00;;;;;;;;;;5015122;28;20062;-69
2024/01/10 03:31:30;;;;;;;10.13;6.43;;;;;;;;;;5010738;28;20041;-71
2024/01/10 03:33:56;;;;;;;8.63;6.37;;;;;;;;;;5011793;28;20124;-69
2024/01/10 03:36:22;;;;;;;10.00;7.10;;;;;;;;;;5011498;28;20033;-69
2024/01/10 03:38:48;;;;;;;10.20;7.30;;;;;;;;;;5011593;28;20030;-69
2024/01/10 03:41:17;;;;;;;9.00;7.03;;;;;;;;;;5025553;28;20076;-69
2024/01/10 03:43:43;;;;;;;8.87;6.87;;;;;;;;;;5011928;28;20379;-68
2024/01/10 03:46:10;;;;;;;11.37;6.70;;;;;;;;;;5010148;28;20032;-69
2024/01/10 03:48:36;;;;;;;11.67;7.40;;;;;;;;;;5016780;28;20025;-68
2024/01/10 03:51:03;;;;;;;12.10;7.20;;;;;;;;;;5014946;28;20512;-69
2024/01/10 03:53:29;;;;;;;10.30;6.53;;;;;;;;;;5015613;28;20063;-69
2024/01/10 03:55:55;;;;;;;10.10;6.97;;;;;;;;;;5015001;28;20053;-69
2024/01/10 03:58:21;;;;;;;9.80;6.57;;;;;;;;;;5015210;28;20034;-69
2024/01/10 04:03:50;;;;;;;8.63;6.27;;;;;;;;;;5006678;28;20449;-68
2024/01/10 04:06:16;;;;;;;8.70;6.00;;;;;;;;;;5026504;28;20053;-69
2024/01/10 04:08:42;;;;;;;10.00;7.03;;;;;;;;;;5014995;28;20013;-68
2024/01/10 04:11:09;;;;;;;10.83;6.87;;;;;;;;;;5014888;28;20049;-68
2024/01/10 04:13:35;;;;;;;11.67;6.80;;;;;;;;;;5015059;28;20022;-69
2024/01/10 04:16:01;;;;;;;9.87;6.40;;;;;;;;;;5014714;28;20487;-68
2024/01/10 04:24:43;;;;;;;10.73;6.83;;;;;;;;;;5000604;28;20081;-68
2024/01/10 04:27:09;;;;;;;10.93;6.83;;;;;;;;;;5011171;28;20037;-68
2024/01/10 04:29:35;;;;;;;8.63;6.57;;;;;;;;;;5009332;28;20403;-68
2024/01/10 04:32:01;;;;;;;6.97;5.90;;;;;;;;;;5027636;28;20125;-68
2024/01/10 04:34:27;;;;;;;11.47;7.80;;;;;;;;;;5014516;28;20030;-68
2024/01/10 04:39:57;;;;;;;8.77;6.27;;;;;;;;;;5007868;28;20040;-68
2024/01/10 04:42:23;;;;;;;12.03;6.63;;;;;;;;;;5015416;28;20049;-68
2024/01/10 04:44:49;;;;;;;11.57;6.60;;;;;;;;;;5014339;28;20424;-68
2024/01/10 04:47:15;;;;;;;11.80;7.23;;;;;;;;;;5012728;28;20439;-68
2024/01/10 04:49:41;;;;;;;11.17;7.20;;;;;;;;;;5014354;28;20034;-68
2024/01/10 04:52:07;;;;;;;11.30;7.43;;;;;;;;;;5013831;28;20053;-68
2024/01/10 04:54:34;;;;;;;11.47;6.93;;;;;;;;;;5014001;28;20026;-68
2024/01/10 04:57:00;;;;;;;10.67;6.93;;;;;;;;;;5014205;28;20033;-68
2024/01/10 04:59:25;;;;;;;10.63;6.93;;;;;;;;;;5012635;28;20484;-69
2024/01/10 05:01:52;;;;;;;11.73;6.40;;;;;;;;;;5013756;28;20025;-68
2024/01/10 05:04:18;;;;;;;10.73;7.10;;;;;;;;;;5013605;28;20054;-68
2024/01/10 05:06:44;;;;;;;9.33;6.67;;;;;;;;;;5012290;28;20073;-68
2024/01/10 05:09:10;;;;;;;12.30;5.90;;;;;;;;;;5014187;28;20433;-68
2024/01/10 05:11:36;;;;;;;10.07;6.33;;;;;;;;;;5013526;28;20034;-68
2024/01/10 05:14:02;;;;;;;11.93;6.47;;;;;;;;;;5013619;28;20465;-68
2024/01/10 05:16:29;;;;;;;12.83;6.73;;;;;;;;;;5013403;28;20026;-68
2024/01/10 05:18:55;;;;;;;9.10;6.73;;;;;;;;;;5013603;28;20073;-68
2024/01/10 05:21:21;;;;;;;7.57;5.70;;;;;;;;;;5013631;28;20488;-68
2024/01/10 05:23:47;;;;;;;9.03;6.20;;;;;;;;;;5013475;28;20033;-68
2024/01/10 05:26:13;;;;;;;11.67;6.30;;;;;;;;;;5013466;28;20471;-68
2024/01/10 05:28:39;;;;;;;8.03;5.77;;;;;;;;;;5012146;28;20033;-68
2024/01/10 05:31:05;;;;;;;12.43;6.90;;;;;;;;;;5013447;28;20563;-68
2024/01/10 05:33:31;;;;;;;9.87;5.73;;;;;;;;;;5013152;28;20060;-69
2024/01/10 05:35:58;;;;;;;10.43;6.57;;;;;;;;;;5013388;28;20040;-68
2024/01/10 05:38:24;;;;;;;8.47;5.97;;;;;;;;;;5013199;28;20022;-68
2024/01/10 05:40:51;;;;;;;9.67;6.50;;;;;;;;;;5017755;28;20428;-68
2024/01/10 05:43:17;;;;;;;10.63;6.87;;;;;;;;;;5011599;28;20075;-68
2024/01/10 05:45:43;;;;;;;9.70;5.87;;;;;;;;;;5013026;28;20125;-69
2024/01/10 05:48:09;;;;;;;10.27;6.27;;;;;;;;;;5011561;28;20124;-68
2024/01/10 05:50:35;;;;;;;9.60;5.77;;;;;;;;;;4995219;28;20180;-68
2024/01/10 05:53:02;;;;;;;9.53;6.30;;;;;;;;;;5012995;28;20053;-69
2024/01/10 05:55:28;;;;;;;10.90;6.83;;;;;;;;;;5013054;28;20400;-68
2024/01/10 05:57:54;;;;;;;9.83;6.23;;;;;;;;;;5013067;28;20092;-68
2024/01/10 06:00:20;;;;;;;9.87;7.13;;;;;;;;;;5012913;28;20449;-68
2024/01/10 06:02:47;;;;;;;9.87;6.47;;;;;;;;;;5012723;28;20511;-68
2024/01/10 06:05:13;;;;;;;10.07;6.40;;;;;;;;;;5012790;28;20029;-68
2024/01/10 06:07:40;;;;;;;10.03;5.87;;;;;;;;;;5012779;28;20033;-68
2024/01/10 06:10:06;;;;;;;11.33;6.70;;;;;;;;;;5011742;28;20091;-68
2024/01/10 06:12:32;;;;;;;10.57;6.90;;;;;;;;;;5010221;28;20032;-69
2024/01/10 06:14:58;;;;;;;9.93;6.50;;;;;;;;;;5012509;28;20034;-68
2024/01/10 06:17:24;;;;;;;12.40;7.07;;;;;;;;;;5012811;28;20064;-68
2024/01/10 06:19:51;;;;;;;9.83;6.83;;;;;;;;;;5012654;28;20030;-68
2024/01/10 06:22:17;;;;;;;11.83;6.70;;;;;;;;;;5012535;28;20464;-68
2024/01/10 06:24:44;;;;;;;12.20;6.90;;;;;;;;;;5012497;28;20060;-68
2024/01/10 06:27:10;;;;;;;10.57;7.70;;;;;;;;;;5012518;28;20033;-68
2024/01/10 06:29:39;;;;;;;11.17;6.47;;;;;;;;;;5009850;28;20032;-68
2024/01/10 06:32:06;;;;;;;12.17;7.90;;;;;;;;;;5012076;28;20105;-68
2024/01/10 06:34:33;;;;;;;11.90;7.40;;;;;;;;;;5011981;28;20502;-68
2024/01/10 06:36:59;;;;;;;14.07;6.50;;;;;;;;;;5011954;28;20034;-68
2024/01/10 06:39:25;;;;;;;11.17;7.63;;;;;;;;;;5016922;28;20127;-67
2024/01/10 06:41:51;;;;;;;11.30;6.43;;;;;;;;;;5012131;28;20491;-68
2024/01/10 06:44:17;;;;;;;11.13;6.57;;;;;;;;;;5012024;28;20358;-67
2024/01/10 06:46:44;;;;;;;12.87;7.13;;;;;;;;;;5012199;28;20030;-67
2024/01/10 06:49:10;;;;;;;10.23;6.37;;;;;;;;;;5010599;28;20085;-68
2024/01/10 06:51:36;;;;;;;9.27;6.93;;;;;;;;;;5011686;28;20042;-68
2024/01/10 06:54:05;;;;;;;11.30;6.83;;;;;;;;;;4997148;28;20057;-68
2024/01/10 06:56:35;;;;;;;10.37;7.10;;;;;;;;;;5012253;28;20084;-67
2024/01/10 06:59:01;;;;;;;14.90;7.53;;;;;;;;;;5010428;28;20014;-67
2024/01/10 07:01:27;;;;;;;12.30;7.03;;;;;;;;;;5011505;28;20583;-68
2024/01/10 07:03:56;;;;;;;13.00;6.83;;;;;;;;;;5004976;28;20112;-67
2024/01/10 07:06:22;;;;;;;10.20;6.90;;;;;;;;;;5011856;28;20018;-68
2024/01/10 07:08:49;;;;;;;14.57;7.07;;;;;;;;;;5011762;28;20030;-68
2024/01/10 07:11:16;;;;;;;11.57;6.60;;;;;;;;;;5006402;28;20428;-67
2024/01/10 07:13:42;;;;;;;8.13;6.90;;;;;;;;;;5011426;28;20022;-68
2024/01/10 07:16:08;;;;;;;13.97;6.47;;;;;;;;;;5011637;28;20037;-67
2024/01/10 07:18:34;;;;;;;12.60;7.10;;;;;;;;;;5009560;28;20105;-67
2024/01/10 07:21:00;;;;;;;8.80;6.70;;;;;;;;;;5013169;28;20117;-67
2024/01/10 07:23:27;;;;;;;12.10;7.00;;;;;;;;;;5014330;28;20484;-67
2024/01/10 07:25:53;;;;;;;10.97;6.73;;;;;;;;;;5016191;28;20026;-67
2024/01/10 07:28:19;;;;;;;15.07;6.90;;;;;;;;;;5015599;28;20029;-67
2024/01/10 07:30:46;;;;;;;11.67;6.37;;;;;;;;;;5012548;28;20037;-68
2024/01/10 07:33:12;;;;;;;12.07;6.70;;;;;;;;;;5011249;28;20030;-67
2024/01/10 07:35:38;;;;;;;8.70;6.00;;;;;;;;;;5015565;28;20072;-67
2024/01/10 07:38:07;;;;;;;12.70;6.90;;;;;;;;;;5015519;28;20029;-68
2024/01/10 07:40:33;;;;;;;14.13;6.77;;;;;;;;;;5025459;28;20121;-68
2024/01/10 07:42:59;;;;;;;11.00;6.40;;;;;;;;;;5015601;28;20022;-68
2024/01/10 07:45:25;;;;;;;10.03;6.77;;;;;;;;;;5011014;28;20061;-68
2024/01/10 07:47:51;;;;;;;10.63;6.30;;;;;;;;;;5015230;28;20029;-68
2024/01/10 07:50:19;;;;;;;9.70;6.47;;;;;;;;;;5015440;28;20057;-68
2024/01/10 07:52:46;;;;;;;13.90;6.87;;;;;;;;;;5015388;28;20022;-68
2024/01/10 07:55:12;;;;;;;12.00;7.03;;;;;;;;;;5014139;28;20034;-68
2024/01/10 07:57:38;;;;;;;11.47;7.60;;;;;;;;;;5007393;28;20109;-68
2024/01/10 08:00:10;;;;;;;10.67;7.63;;;;;;;;;;5015204;28;20129;-68
2024/01/10 08:02:36;;;;;;;11.77;7.17;;;;;;;;;;5010921;28;20033;-68
2024/01/10 08:05:05;;;;;;;11.80;7.60;;;;;;;;;;5015498;28;20014;-68
2024/01/10 08:07:36;;;;;;;11.27;7.57;;;;;;;;;;5007260;28;20026;-68
2024/01/10 08:10:04;;;;;;;13.40;8.17;;;;;;;;;;5015186;28;20357;-68
2024/01/10 08:12:30;;;;;;;14.97;7.57;;;;;;;;;;5013591;28;20030;-67
2024/01/10 08:14:56;;;;;;;12.60;8.17;;;;;;;;;;5014007;28;20472;-67
2024/01/10 08:17:23;;;;;;;10.87;7.30;;;;;;;;;;5016014;28;20052;-67
2024/01/10 08:19:49;;;;;;;10.27;7.33;;;;;;;;;;5010696;28;20591;-67
2024/01/10 08:22:15;;;;;;;12.33;7.67;;;;;;;;;;5013723;28;20108;-67
2024/01/10 08:24:41;;;;;;;11.70;6.93;;;;;;;;;;5016517;28;20418;-67
2024/01/10 08:27:07;;;;;;;11.87;7.33;;;;;;;;;;5015291;28;20018;-67
2024/01/10 08:29:33;;;;;;;9.60;6.50;;;;;;;;;;5013164;28;20390;-67
2024/01/10 08:31:59;;;;;;;11.43;7.70;;;;;;;;;;5003292;28;20500;-67
2024/01/10 08:34:26;;;;;;;12.33;7.63;;;;;;;;;;5017937;28;20034;-67
2024/01/10 08:36:53;;;;;;;13.93;7.87;;;;;;;;;;5033951;28;20032;-67
2024/01/10 08:39:19;;;;;;;13.07;7.87;;;;;;;;;;5021009;28;20025;-67
2024/01/10 08:41:45;;;;;;;15.93;8.57;;;;;;;;;;5034345;28;20041;-68
2024/01/10 08:44:11;;;;;;;14.20;8.60;;;;;;;;;;5014367;28;20026;-68
2024/01/10 08:46:37;;;;;;;14.07;8.57;;;;;;;;;;5014147;28;20375;-68
2024/01/10 08:49:03;;;;;;;15.23;8.53;;;;;;;;;;5030294;28;20025;-67
2024/01/10 08:51:30;;;;;;;11.73;8.53;;;;;;;;;;5025659;28;20046;-67
2024/01/10 08:53:56;;;;;;;11.20;8.23;;;;;;;;;;5010426;28;20033;-68
2024/01/10 08:56:22;;;;;;;11.47;8.03;;;;;;;;;;5014152;28;20025;-68
2024/01/10 08:58:48;;;;;;;14.10;8.40;;;;;;;;;;5014211;28;20026;-68
2024/01/10 09:01:14;;;;;;;10.80;7.73;;;;;;;;;;5013893;28;20033;-68
2024/01/10 09:03:40;;;;;;;13.20;8.47;;;;;;;;;;5013721;28;20026;-68
2024/01/10 09:06:10;;;;;;;13.80;9.40;;;;;;;;;;5027409;28;20499;-68
2024/01/10 09:08:36;;;;;;;11.73;7.30;;;;;;;;;;5014055;28;20033;-68
2024/01/10 09:11:03;;;;;;;12.53;8.00;;;;;;;;;;5013799;28;20510;-68
2024/01/10 09:13:29;;;;;;;12.53;8.00;;;;;;;;;;5013795;28;20471;-68
2024/01/10 09:15:55;;;;;;;11.77;8.60;;;;;;;;;;5014083;28;20052;-67
2024/01/10 09:18:21;;;;;;;12.67;7.60;;;;;;;;;;5013904;28;20068;-67
2024/01/10 09:20:48;;;;;;;13.50;9.00;;;;;;;;;;5013708;28;20030;-67
2024/01/10 09:23:14;;;;;;;12.17;8.63;;;;;;;;;;5013568;28;20025;-68
2024/01/10 09:25:40;;;;;;;14.10;9.10;;;;;;;;;;5013747;28;20076;-68
2024/01/10 09:28:06;;;;;;;11.83;7.70;;;;;;;;;;5013642;28;20030;-69
2024/01/10 09:30:32;;;;;;;13.40;8.97;;;;;;;;;;5013583;28;20034;-68
2024/01/10 09:33:00;;;;;;;13.73;8.50;;;;;;;;;;5013361;28;20037;-68
2024/01/10 09:35:26;;;;;;;13.13;8.30;;;;;;;;;;5013294;28;20096;-68
2024/01/10 09:37:53;;;;;;;13.57;7.73;;;;;;;;;;5013163;28;20492;-69
2024/01/10 09:40:21;;;;;;;15.40;8.77;;;;;;;;;;5019223;28;20116;-69
2024/01/10 09:42:50;;;;;;;14.47;8.63;;;;;;;;;;5026278;28;20033;-68
2024/01/10 09:45:18;;;;;;;17.03;8.60;;;;;;;;;;5019956;28;20029;-68
2024/01/10 09:47:49;;;;;;;13.80;8.40;;;;;;;;;;5015424;28;20582;-68
2024/01/10 09:50:15;;;;;;;16.00;9.13;;;;;;;;;;5017726;28;20045;-68
2024/01/10 09:52:45;;;;;;;12.73;8.27;;;;;;;;;;5013184;28;20029;-69
2024/01/10 09:55:12;;;;;;;12.33;8.60;;;;;;;;;;5017096;28;20088;-68
2024/01/10 09:57:38;;;;;;;14.30;9.40;;;;;;;;;;5009879;28;20025;-70
2024/01/10 10:00:04;;;;;;;14.50;8.60;;;;;;;;;;5005340;28;20113;-70
2024/01/10 10:02:32;;;;;;;13.23;8.57;;;;;;;;;;5006200;28;20060;-71
2024/01/10 10:05:14;;;;;;;13.33;8.70;;;;;;;;;;5008178;28;20385;-69
2024/01/10 10:07:50;;;;;;;10.67;8.10;;;;;;;;;;5010991;28;20114;-69
2024/01/10 10:10:16;;;;;;;14.07;9.30;;;;;;;;;;5012574;28;20513;-69
2024/01/10 10:12:50;;;;;;;15.83;8.20;;;;;;;;;;5016354;28;20029;-69
2024/01/10 10:15:18;;;;;;;13.88;8.60;;;;;;;;;;5013234;28;20026;-69
2024/01/10 10:17:55;;;;;;;14.37;8.70;;;;;;;;;;5065883;28;20474;-69
2024/01/10 10:20:21;;;;;;;11.83;8.70;;;;;;;;;;5067082;28;20031;-69
2024/01/10 10:23:00;;;;;;;12.70;9.30;;;;;;;;;;5066294;28;20024;-69
2024/01/10 10:25:31;;;;;;;12.40;8.83;;;;;;;;;;5063591;28;20020;-69
2024/01/10 10:27:56;;;;;;;15.13;8.33;;;;;;;;;;5068888;28;20032;-69
2024/01/10 10:30:22;;;;;;;16.27;9.43;;;;;;;;;;5067348;28;20131;-69
2024/01/10 10:32:49;;;;;;;18.83;10.93;;;;;;;;;;5057008;28;20021;-69
2024/01/10 10:35:15;;;;;;;14.97;9.20;;;;;;;;;;5068692;28;20368;-69
2024/01/10 10:37:41;;;;;;;15.13;9.20;;;;;;;;;;5068596;28;20075;-70
2024/01/10 10:40:11;;;;;;;15.80;8.73;;;;;;;;;;5055209;28;20017;-69
2024/01/10 10:42:41;;;;;;;15.00;9.40;;;;;;;;;;5067670;28;20021;-69
2024/01/10 10:45:07;;;;;;;13.70;8.23;;;;;;;;;;5067388;28;20452;-69
2024/01/10 10:47:36;;;;;;;12.80;8.63;;;;;;;;;;5067119;28;20016;-70
2024/01/10 10:50:03;;;;;;;15.10;9.30;;;;;;;;;;5067169;28;20021;-69
2024/01/10 10:52:29;;;;;;;13.03;8.97;;;;;;;;;;5055514;28;20028;-69
2024/01/10 10:54:57;;;;;;;11.80;8.23;;;;;;;;;;5068688;28;20036;-69
2024/01/10 10:57:26;;;;;;;13.40;8.80;;;;;;;;;;5067032;28;20133;-69
2024/01/10 10:59:52;;;;;;;12.27;8.17;;;;;;;;;;5049491;28;20065;-69
2024/01/10 11:02:22;;;;;;;11.97;8.63;;;;;;;;;;5053060;28;20482;-69
2024/01/10 11:04:49;;;;;;;15.87;9.07;;;;;;;;;;5066159;28;20146;-68
2024/01/10 11:07:15;;;;;;;13.87;9.10;;;;;;;;;;5068233;28;20033;-68
2024/01/10 11:09:42;;;;;;;16.23;9.47;;;;;;;;;;5067868;28;20028;-68
2024/01/10 11:12:17;;;;;;;14.03;8.93;;;;;;;;;;5068352;28;20331;-67
2024/01/10 11:15:02;;;;;;;13.37;10.47;;;;;;;;;;5056310;28;20025;-64
2024/01/10 11:17:31;;;;;;;14.88;10.18;;;;;;;;;;5068438;28;20469;-64
2024/01/10 11:20:16;;;;;;;18.80;9.43;;;;;;;;;;5059892;28;20026;-55
2024/01/10 11:23:01;;;;;;;14.55;9.18;;;;;;;;;;5063359;28;20029;-56
2024/01/10 11:25:29;;;;;;;17.80;9.88;;;;;;;;;;5066193;28;20419;-63
2024/01/10 11:27:55;;;;;;;13.97;10.23;;;;;;;;;;5052029;28;20100;-57
2024/01/10 11:30:40;;;;;;;15.13;9.83;;;;;;;;;;5044536;28;20086;-54
2024/01/10 11:33:44;;;;;;;16.27;9.90;;;;;;;;;;5054527;28;20032;-55
2024/01/10 11:36:13;;;;;;;16.33;10.07;;;;;;;;;;5012401;28;20531;-55
2024/01/10 11:38:44;;;;;;;11.30;9.30;;;;;;;;;;5012331;28;20104;-54
2024/01/10 11:41:14;;;;;;;15.23;9.80;;;;;;;;;;5027682;28;20036;-55
2024/01/10 11:43:40;;;;;;;15.03;9.57;;;;;;;;;;5054150;28;20025;-57
2024/01/10 11:46:06;;;;;;;13.43;9.90;;;;;;;;;;5054117;28;20072;-52
2024/01/10 11:48:33;;;;;;;14.27;10.30;;;;;;;;;;5053928;28;20029;-58
2024/01/10 11:51:00;;;;;;;17.93;10.83;;;;;;;;;;5054209;28;20118;-58
2024/01/10 11:53:42;;;;;;;12.17;9.60;;;;;;;;;;5053983;28;20028;-57
2024/01/10 11:56:11;;;;;;;14.93;10.53;;;;;;;;;;5046449;28;20513;-58
2024/01/10 11:58:58;;;;;;;17.73;9.93;;;;;;;;;;5053888;28;20387;-57
2024/01/10 12:01:24;;;;;;;16.20;10.30;;;;;;;;;;5041645;28;20044;-57
2024/01/10 12:03:52;;;;;;;18.10;11.80;;;;;;;;;;5053636;28;20394;-57
2024/01/10 12:06:18;;;;;;;22.50;12.80;;;;;;;;;;5053641;28;20025;-57
2024/01/10 12:08:44;;;;;;;19.73;11.10;;;;;;;;;;5053960;28;20086;-55
2024/01/10 12:14:14;;;;;;;15.13;10.43;;;;;;;;;;5037278;28;20445;-57
2024/01/10 12:16:40;;;;;;;15.50;9.40;;;;;;;;;;5042856;28;20565;-57
2024/01/10 12:19:06;;;;;;;20.63;10.27;;;;;;;;;;5053120;28;20095;-57
2024/01/10 12:21:32;;;;;;;12.45;9.35;;;;;;;;;;5053550;28;20378;-57
2024/01/10 12:23:58;;;;;;;12.73;8.85;;;;;;;;;;5053508;28;20028;-56
2024/01/10 12:26:24;;;;;;;17.17;11.07;;;;;;;;;;5053242;28;20024;-55
2024/01/10 12:28:57;;;;;;;16.10;10.73;;;;;;;;;;5041819;28;20025;-56
2024/01/10 12:31:23;;;;;;;15.03;10.17;;;;;;;;;;5050517;28;20033;-56
2024/01/10 12:33:49;;;;;;;13.00;10.27;;;;;;;;;;5051889;28;20025;-57
2024/01/10 12:36:17;;;;;;;15.67;10.80;;;;;;;;;;5052849;28;20166;-56
2024/01/10 12:41:46;;;;;;;16.23;10.67;;;;;;;;;;5048672;28;20083;-56
2024/01/10 12:44:13;;;;;;;13.80;10.40;;;;;;;;;;5050117;28;20424;-54
2024/01/10 12:46:50;;;;;;;14.57;9.97;;;;;;;;;;5045657;28;20390;-57
2024/01/10 12:49:16;;;;;;;19.23;11.43;;;;;;;;;;5053071;28;20321;-56
2024/01/10 12:51:43;;;;;;;16.80;10.83;;;;;;;;;;5053003;28;20025;-56
2024/01/10 12:54:09;;;;;;;16.05;11.20;;;;;;;;;;5048184;28;20026;-56
2024/01/10 12:56:35;;;;;;;17.90;11.63;;;;;;;;;;5044050;28;20124;-57
2024/01/10 12:59:01;;;;;;;16.48;10.35;;;;;;;;;;5052830;28;20055;-56
2024/01/10 13:01:27;;;;;;;18.75;10.88;;;;;;;;;;5052875;28;20543;-57
2024/01/10 13:03:53;;;;;;;15.10;11.37;;;;;;;;;;5051777;28;20028;-57
2024/01/10 13:06:22;;;;;;;13.73;10.20;;;;;;;;;;5047339;28;20124;-58
2024/01/10 13:08:48;;;;;;;14.00;9.57;;;;;;;;;;5050274;28;20024;-58
2024/01/10 13:11:14;;;;;;;17.65;10.85;;;;;;;;;;5049372;28;20131;-58
2024/01/10 13:13:41;;;;;;;14.10;10.20;;;;;;;;;;5049125;28;20573;-59
2024/01/10 13:16:10;;;;;;;18.63;11.17;;;;;;;;;;5049698;28;20648;-58
2024/01/10 13:18:36;;;;;;;14.97;10.07;;;;;;;;;;5052004;28;20096;-58
2024/01/10 13:21:02;;;;;;;15.83;10.67;;;;;;;;;;5044955;28;20114;-57
2024/01/10 13:23:28;;;;;;;14.10;9.83;;;;;;;;;;5039715;28;20021;-57
2024/01/10 13:25:54;;;;;;;14.97;9.67;;;;;;;;;;5050937;28;20028;-55
2024/01/10 13:28:20;;;;;;;14.32;10.15;;;;;;;;;;5038069;28;20021;-55
2024/01/10 13:30:46;;;;;;;14.43;9.23;;;;;;;;;;5052449;28;20044;-57
2024/01/10 13:33:13;;;;;;;15.43;10.57;;;;;;;;;;5050649;28;20497;-56
2024/01/10 13:35:39;;;;;;;16.13;10.40;;;;;;;;;;5044557;28;20028;-55
2024/01/10 13:38:06;;;;;;;17.20;11.15;;;;;;;;;;5045852;28;20463;-57
2024/01/10 13:40:33;;;;;;;14.33;9.97;;;;;;;;;;5052066;28;20524;-55
2024/01/10 13:43:02;;;;;;;15.30;10.53;;;;;;;;;;5052103;28;20025;-58
2024/01/10 13:45:28;;;;;;;14.23;10.07;;;;;;;;;;5050603;28;20013;-56
2024/01/10 13:47:54;;;;;;;14.07;9.30;;;;;;;;;;5050583;28;20367;-58
2024/01/10 13:50:20;;;;;;;14.90;10.23;;;;;;;;;;5051821;28;20028;-58
2024/01/10 13:52:46;;;;;;;15.87;10.57;;;;;;;;;;5043898;28;20017;-58
2024/01/10 13:55:12;;;;;;;15.30;10.27;;;;;;;;;;5036796;28;20059;-57
2024/01/10 13:57:38;;;;;;;16.87;10.47;;;;;;;;;;5051917;28;20064;-58
2024/01/10 14:00:06;;;;;;;14.95;9.82;;;;;;;;;;5051457;28;20032;-56
2024/01/10 14:02:32;;;;;;;19.20;10.03;;;;;;;;;;5050209;28;20490;-58
2024/01/10 14:04:58;;;;;;;15.77;10.00;;;;;;;;;;5052026;28;20040;-56
2024/01/10 14:07:24;;;;;;;16.73;11.33;;;;;;;;;;5051551;28;20032;-55
2024/01/10 14:09:54;;;;;;;15.63;9.83;;;;;;;;;;5051677;28;20049;-57
2024/01/10 14:12:20;;;;;;;12.10;9.13;;;;;;;;;;5051679;28;20356;-58
2024/01/10 14:14:46;;;;;;;15.90;10.70;;;;;;;;;;5051688;28;20033;-55
2024/01/10 14:17:12;;;;;;;20.63;11.13;;;;;;;;;;5051361;28;20056;-57
2024/01/10 14:19:38;;;;;;;16.77;10.20;;;;;;;;;;5051568;28;20364;-58
2024/01/10 14:22:04;;;;;;;15.27;10.57;;;;;;;;;;5042313;28;20029;-57
2024/01/10 14:24:32;;;;;;;16.70;11.03;;;;;;;;;;5051361;28;20063;-58
2024/01/10 14:26:58;;;;;;;14.83;10.60;;;;;;;;;;5050738;28;20135;-57
2024/01/10 14:29:25;;;;;;;13.93;9.97;;;;;;;;;;5046434;28;20451;-58
2024/01/10 14:31:51;;;;;;;13.63;9.73;;;;;;;;;;5051647;28;20033;-59
2024/01/10 14:34:17;;;;;;;15.23;10.37;;;;;;;;;;5051677;28;20025;-57
2024/01/10 14:36:43;;;;;;;13.43;9.67;;;;;;;;;;5051671;28;20029;-58
2024/01/10 14:39:12;;;;;;;15.80;10.90;;;;;;;;;;5051587;28;20106;-59
2024/01/10 14:41:39;;;;;;;12.93;9.40;;;;;;;;;;5051530;28;20036;-58
2024/01/10 14:44:05;;;;;;;18.20;10.80;;;;;;;;;;5051494;28;20024;-59
2024/01/10 14:46:31;;;;;;;16.43;9.43;;;;;;;;;;5051396;28;20472;-59
2024/01/10 14:48:57;;;;;;;15.50;10.53;;;;;;;;;;5046495;28;20032;-58
2024/01/10 14:51:23;;;;;;;17.57;9.17;;;;;;;;;;5051455;28;20493;-58
2024/01/10 14:53:51;;;;;;;15.17;9.20;;;;;;;;;;5051464;28;20032;-59
2024/01/10 14:56:17;;;;;;;13.03;9.53;;;;;;;;;;5050059;28;20025;-57
2024/01/10 14:58:43;;;;;;;13.70;9.33;;;;;;;;;;5051369;28;20025;-58